createdAt,value
2023-11-30T00:00:41.768Z,7.03
2023-11-30T00:03:09.978Z,7.43
2023-11-30T00:05:38.024Z,6.70
2023-11-30T00:08:06.431Z,7.03
2023-11-30T00:10:34.437Z,7.23
2023-11-30T00:13:02.551Z,8.27
2023-11-30T00:15:30.642Z,7.47
2023-11-30T00:18:00.325Z,7.23
2023-11-30T00:20:28.503Z,6.27
2023-11-30T00:22:56.497Z,6.07
2023-11-30T00:25:24.499Z,7.07
2023-11-30T00:27:52.525Z,6.50
2023-11-30T00:30:21.403Z,6.97
2023-11-30T00:32:49.674Z,7.30
2023-11-30T00:35:19.188Z,7.30
2023-11-30T00:37:47.453Z,7.50
2023-11-30T00:40:15.705Z,7.23
2023-11-30T00:42:43.841Z,7.80
2023-11-30T00:45:12.593Z,7.57
2023-11-30T00:47:40.769Z,6.67
2023-11-30T00:50:10.190Z,7.47
2023-11-30T00:52:39.531Z,8.10
2023-11-30T00:55:08.729Z,7.40
2023-11-30T00:57:36.727Z,7.30
2023-11-30T01:00:07.138Z,7.60
2023-11-30T01:02:35.247Z,6.90
2023-11-30T01:05:03.566Z,8.30
2023-11-30T01:07:31.606Z,7.87
2023-11-30T01:10:01.004Z,7.53
2023-11-30T01:12:29.271Z,8.03
2023-11-30T01:14:57.947Z,8.03
2023-11-30T01:17:26.383Z,8.27
2023-11-30T01:19:54.951Z,7.53
2023-11-30T01:22:22.990Z,8.70
2023-11-30T01:24:51.443Z,7.87
2023-11-30T01:27:21.379Z,7.03
2023-11-30T01:29:49.400Z,7.10
2023-11-30T01:32:17.743Z,7.80
2023-11-30T01:34:45.921Z,7.60
2023-11-30T01:37:14.007Z,9.40
2023-11-30T01:39:42.302Z,8.07
2023-11-30T01:42:10.538Z,8.07
2023-11-30T01:44:39.983Z,7.90
2023-11-30T01:47:09.173Z,8.60
2023-11-30T01:49:37.642Z,8.60
2023-11-30T01:52:06.548Z,9.20
2023-11-30T01:54:35.348Z,8.47
2023-11-30T01:57:05.061Z,8.80
2023-11-30T01:59:33.646Z,8.40
2023-11-30T02:02:03.254Z,8.10
2023-11-30T02:04:34.313Z,8.77
2023-11-30T02:07:03.642Z,8.13
2023-11-30T02:09:31.857Z,8.40
2023-11-30T02:11:59.886Z,9.67
2023-11-30T02:14:28.889Z,7.30
2023-11-30T02:16:56.885Z,7.20
2023-11-30T02:19:26.263Z,7.80
2023-11-30T02:21:55.994Z,7.83
2023-11-30T02:24:24.133Z,8.27
2023-11-30T02:26:52.305Z,8.17
2023-11-30T02:29:20.380Z,7.70
2023-11-30T02:31:48.470Z,7.57
2023-11-30T02:34:17.036Z,8.57
2023-11-30T02:36:45.057Z,8.27
2023-11-30T02:39:14.549Z,6.80
2023-11-30T02:41:42.586Z,7.43
2023-11-30T02:44:10.837Z,8.07
2023-11-30T02:46:39.169Z,7.40
2023-11-30T02:49:07.262Z,7.97
2023-11-30T02:51:36.631Z,8.20
2023-11-30T02:54:04.878Z,7.93
2023-11-30T02:56:40.690Z,7.23
2023-11-30T02:59:09.291Z,7.60
2023-11-30T03:01:45.373Z,7.80
2023-11-30T03:04:14.307Z,7.83
2023-11-30T03:06:43.474Z,7.93
2023-11-30T03:09:13.348Z,7.03
2023-11-30T03:11:42.833Z,8.40
2023-11-30T03:14:10.917Z,7.73
2023-11-30T03:16:39.065Z,8.13
2023-11-30T03:19:16.260Z,8.23
2023-11-30T03:21:45.989Z,8.17
2023-11-30T03:24:14.114Z,7.00
2023-11-30T03:26:43.503Z,7.33
2023-11-30T03:29:11.605Z,7.80
2023-11-30T03:31:40.910Z,8.13
2023-11-30T03:34:09.570Z,8.03
2023-11-30T03:36:37.768Z,9.67
2023-11-30T03:39:06.057Z,8.30
2023-11-30T03:41:34.563Z,8.57
2023-11-30T03:44:03.943Z,9.30
2023-11-30T03:46:32.202Z,8.10
2023-11-30T03:49:00.275Z,8.47
2023-11-30T03:51:28.271Z,8.97
2023-11-30T03:53:56.656Z,8.87
2023-11-30T03:56:24.792Z,8.57
2023-11-30T03:58:53.171Z,8.93
2023-11-30T04:01:25.987Z,9.40
2023-11-30T04:03:54.351Z,8.03
2023-11-30T04:06:23.652Z,7.60
2023-11-30T04:08:52.624Z,8.90
2023-11-30T04:11:20.923Z,8.40
2023-11-30T04:13:49.882Z,8.73
2023-11-30T04:16:18.984Z,8.10
2023-11-30T04:18:48.459Z,6.87
2023-11-30T04:21:16.660Z,8.23
2023-11-30T04:23:46.222Z,8.30
2023-11-30T04:26:14.378Z,7.90
2023-11-30T04:28:42.616Z,7.87
2023-11-30T04:31:11.035Z,7.57
2023-11-30T04:33:39.139Z,7.90
2023-11-30T04:36:09.457Z,7.67
2023-11-30T04:38:37.498Z,8.80
2023-11-30T04:41:05.849Z,8.20
2023-11-30T04:43:37.436Z,7.10
2023-11-30T04:46:06.249Z,8.53
2023-11-30T04:48:35.081Z,8.60
2023-11-30T04:51:03.490Z,9.27
2023-11-30T04:53:35.325Z,9.07
2023-11-30T04:56:03.446Z,8.73
2023-11-30T04:58:32.154Z,10.50
2023-11-30T05:01:00.521Z,9.07
2023-11-30T05:03:28.836Z,10.23
2023-11-30T05:05:57.316Z,9.27
2023-11-30T05:08:25.388Z,9.33
2023-11-30T05:10:54.844Z,9.10
2023-11-30T05:13:22.914Z,9.60
2023-11-30T05:15:50.949Z,10.00
2023-11-30T05:18:19.400Z,10.60
2023-11-30T05:20:47.518Z,10.23
2023-11-30T05:23:15.527Z,10.50
2023-11-30T05:25:43.649Z,10.13
2023-11-30T05:28:13.035Z,11.03
2023-11-30T05:30:41.099Z,10.53
2023-11-30T05:33:09.326Z,11.50
2023-11-30T05:35:37.536Z,11.10
2023-11-30T05:38:05.818Z,10.40
2023-11-30T05:40:33.934Z,10.27
2023-11-30T05:43:01.965Z,11.13
2023-11-30T05:45:31.341Z,10.30
2023-11-30T05:47:59.417Z,10.60
2023-11-30T05:50:27.456Z,10.17
2023-11-30T05:52:55.494Z,10.10
2023-11-30T05:55:23.780Z,10.70
2023-11-30T05:57:51.851Z,10.30
2023-11-30T06:00:21.457Z,11.27
2023-11-30T06:02:51.692Z,11.20
2023-11-30T06:05:19.763Z,10.33
2023-11-30T06:07:47.953Z,9.93
2023-11-30T06:10:16.585Z,10.17
2023-11-30T06:12:44.640Z,10.80
2023-11-30T06:15:13.618Z,10.83
2023-11-30T06:17:41.668Z,10.20
2023-11-30T06:20:13.373Z,10.73
2023-11-30T06:22:41.789Z,11.87
2023-11-30T06:25:10.899Z,10.33
2023-11-30T06:27:39.156Z,10.50
2023-11-30T06:30:09.267Z,11.50
2023-11-30T06:32:37.431Z,10.27
2023-11-30T06:35:06.324Z,10.17
2023-11-30T06:37:35.679Z,12.17
2023-11-30T06:40:04.013Z,11.90
2023-11-30T06:42:33.020Z,12.20
2023-11-30T06:45:01.328Z,11.33
2023-11-30T06:47:29.458Z,12.40
2023-11-30T06:49:57.469Z,13.30
2023-11-30T06:52:26.079Z,15.77
2023-11-30T06:54:55.496Z,17.10
2023-11-30T06:57:23.764Z,16.97
2023-11-30T06:59:51.934Z,15.70
2023-11-30T07:02:20.090Z,15.60
2023-11-30T07:04:48.276Z,14.90
2023-11-30T07:07:24.249Z,14.30
2023-11-30T07:10:02.082Z,12.87
2023-11-30T07:12:30.306Z,13.50
2023-11-30T07:14:58.634Z,13.40
2023-11-30T07:17:26.787Z,12.20
2023-11-30T07:19:55.037Z,12.60
2023-11-30T07:22:25.743Z,12.53
2023-11-30T07:24:53.968Z,12.33
2023-11-30T07:27:23.590Z,11.87
2023-11-30T07:29:51.689Z,11.90
2023-11-30T07:32:19.741Z,12.13
2023-11-30T07:34:48.629Z,13.03
2023-11-30T07:37:18.787Z,11.60
2023-11-30T07:39:46.927Z,12.20
2023-11-30T07:44:50.035Z,11.17
2023-11-30T07:47:19.925Z,10.87
2023-11-30T07:49:49.624Z,11.37
2023-11-30T07:52:17.656Z,11.97
2023-11-30T07:54:45.759Z,12.90
2023-11-30T07:57:13.825Z,13.23
2023-11-30T07:59:41.932Z,11.73
2023-11-30T08:02:11.313Z,11.93
2023-11-30T08:04:39.812Z,12.57
2023-11-30T08:07:06.992Z,11.13
2023-11-30T08:09:35.177Z,11.57
2023-11-30T08:12:03.503Z,11.33
2023-11-30T08:14:31.521Z,10.53
2023-11-30T08:17:00.441Z,11.70
2023-11-30T08:19:29.820Z,10.30
2023-11-30T08:21:57.875Z,10.30
2023-11-30T08:24:26.174Z,11.57
2023-11-30T08:26:54.198Z,10.73
2023-11-30T08:29:22.392Z,10.30
2023-11-30T08:31:50.536Z,9.23
2023-11-30T08:34:19.001Z,10.33
2023-11-30T08:36:48.594Z,9.20
2023-11-30T08:39:24.842Z,10.20
2023-11-30T08:41:54.276Z,10.53
2023-11-30T08:44:23.850Z,10.70
2023-11-30T08:46:52.524Z,10.93
2023-11-30T08:49:20.680Z,10.90
2023-11-30T08:51:50.352Z,10.13
2023-11-30T08:54:18.550Z,10.30
2023-11-30T08:56:46.637Z,10.70
2023-11-30T08:59:14.749Z,10.97
2023-11-30T09:01:42.984Z,10.10
2023-11-30T09:04:11.233Z,10.20
2023-11-30T09:06:39.396Z,11.00
2023-11-30T09:09:08.859Z,10.20
2023-11-30T09:11:37.170Z,10.77
2023-11-30T09:14:05.408Z,10.13
2023-11-30T09:16:33.497Z,11.87
2023-11-30T09:19:01.603Z,11.40
2023-11-30T09:21:29.683Z,12.47
2023-11-30T09:23:58.900Z,12.30
2023-11-30T09:26:28.677Z,12.60
2023-11-30T09:28:56.966Z,11.77
2023-11-30T09:31:25.149Z,12.40
2023-11-30T09:33:54.488Z,11.87
2023-11-30T09:36:23.788Z,13.17
2023-11-30T09:38:51.917Z,12.23
2023-11-30T09:41:23.942Z,13.90
2023-11-30T09:43:53.522Z,13.97
2023-11-30T09:46:21.542Z,14.30
2023-11-30T09:48:49.901Z,13.27
2023-11-30T09:51:22.511Z,12.70
2023-11-30T09:53:50.769Z,12.90
2023-11-30T09:56:18.845Z,12.50
2023-11-30T09:58:46.977Z,11.47
2023-11-30T10:01:16.505Z,11.07
2023-11-30T10:03:44.699Z,12.17
2023-11-30T10:06:14.218Z,12.07
2023-11-30T10:08:42.249Z,13.20
2023-11-30T10:11:11.011Z,12.27
2023-11-30T10:13:39.298Z,13.53
2023-11-30T10:16:08.523Z,11.70
2023-11-30T10:18:38.249Z,14.53
2023-11-30T10:21:08.593Z,13.23
2023-11-30T10:23:37.181Z,14.33
2023-11-30T10:26:06.135Z,13.63
2023-11-30T10:28:34.675Z,12.83
2023-11-30T10:31:04.375Z,13.10
2023-11-30T10:33:38.333Z,13.00
2023-11-30T10:36:08.690Z,11.70
2023-11-30T10:38:37.873Z,11.40
2023-11-30T10:41:08.989Z,10.97
2023-11-30T10:43:38.946Z,11.53
2023-11-30T10:46:09.269Z,11.83
2023-11-30T10:48:40.597Z,9.87
2023-11-30T10:51:12.795Z,10.70
2023-11-30T10:53:48.962Z,11.57
2023-11-30T10:56:18.646Z,11.40
2023-11-30T10:58:48.561Z,10.00
2023-11-30T11:01:16.635Z,8.93
2023-11-30T11:03:49.951Z,9.83
2023-11-30T11:06:18.636Z,11.40
2023-11-30T11:09:00.740Z,11.33
2023-11-30T11:11:30.511Z,11.20
2023-11-30T11:13:58.596Z,11.07
2023-11-30T11:16:37.270Z,10.23
2023-11-30T11:19:07.834Z,10.27
2023-11-30T11:21:40.547Z,10.93
2023-11-30T11:24:09.975Z,9.80
2023-11-30T11:26:45.828Z,11.73
2023-11-30T11:29:17.793Z,10.23
2023-11-30T11:31:49.432Z,9.33
2023-11-30T11:34:18.850Z,10.90
2023-11-30T11:36:47.081Z,11.30
2023-11-30T11:39:15.416Z,11.20
2023-11-30T11:41:44.044Z,10.83
2023-11-30T11:44:12.278Z,9.43
2023-11-30T11:46:41.028Z,10.47
2023-11-30T11:49:09.179Z,11.13
2023-11-30T11:51:46.407Z,10.13
2023-11-30T11:54:19.079Z,9.63
2023-11-30T11:56:50.728Z,10.00
2023-11-30T11:59:23.022Z,8.40
2023-11-30T12:01:52.176Z,8.90
2023-11-30T12:04:31.051Z,8.77
2023-11-30T12:07:01.705Z,9.63
2023-11-30T12:09:29.963Z,9.50
2023-11-30T12:11:58.352Z,10.13
2023-11-30T12:14:26.490Z,9.77
2023-11-30T12:16:54.586Z,8.50
2023-11-30T12:19:22.665Z,9.50
2023-11-30T12:21:50.860Z,9.23
2023-11-30T12:24:22.471Z,8.20
2023-11-30T12:26:50.756Z,7.70
2023-11-30T12:29:18.845Z,7.97
2023-11-30T12:31:46.952Z,7.90
2023-11-30T12:34:15.400Z,8.10
2023-11-30T12:36:44.445Z,8.17
2023-11-30T12:39:14.485Z,7.77
2023-11-30T12:41:45.686Z,8.77
2023-11-30T12:44:13.771Z,9.00
2023-11-30T12:46:41.886Z,7.87
2023-11-30T12:49:10.060Z,7.80
2023-11-30T12:51:38.159Z,7.80
2023-11-30T12:54:06.474Z,7.63
2023-11-30T12:56:34.969Z,7.43
2023-11-30T12:59:04.551Z,6.80
2023-11-30T13:01:32.688Z,6.63
2023-11-30T13:04:01.892Z,7.93
2023-11-30T13:06:30.390Z,7.40
2023-11-30T13:08:58.416Z,8.40
2023-11-30T13:11:26.664Z,6.20
2023-11-30T13:13:56.044Z,5.47
2023-11-30T13:16:25.750Z,6.70
2023-11-30T13:18:53.968Z,6.00
2023-11-30T13:21:22.296Z,5.47
2023-11-30T13:23:50.701Z,5.80
2023-11-30T13:26:19.796Z,6.00
2023-11-30T13:28:51.992Z,6.30
2023-11-30T13:31:21.503Z,5.60
2023-11-30T13:33:51.083Z,5.20
2023-11-30T13:36:19.363Z,5.43
2023-11-30T13:38:47.474Z,5.83
2023-11-30T13:41:15.492Z,5.97
2023-11-30T13:43:43.982Z,5.10
2023-11-30T13:46:14.454Z,4.90
2023-11-30T13:48:42.730Z,4.93
2023-11-30T13:51:13.068Z,6.10
2023-11-30T13:53:41.351Z,5.07
2023-11-30T13:56:10.955Z,6.30
2023-11-30T13:58:39.224Z,5.40
2023-11-30T14:01:07.749Z,5.43
2023-11-30T14:03:36.066Z,4.80
2023-11-30T14:06:05.062Z,5.60
2023-11-30T14:08:35.956Z,5.30
2023-11-30T14:11:06.537Z,5.10
2023-11-30T14:13:34.741Z,5.80
2023-11-30T14:16:04.085Z,6.30
2023-11-30T14:18:32.193Z,5.13
2023-11-30T14:21:00.570Z,4.73
2023-11-30T14:23:29.109Z,5.70
2023-11-30T14:25:59.473Z,5.53
2023-11-30T14:28:27.587Z,6.37
2023-11-30T14:30:56.082Z,6.03
2023-11-30T14:33:24.267Z,5.20
2023-11-30T14:35:52.393Z,5.13
2023-11-30T14:38:21.578Z,6.50
2023-11-30T14:40:49.849Z,6.07
2023-11-30T14:43:19.906Z,5.80
2023-11-30T14:45:48.171Z,6.37
2023-11-30T14:48:18.050Z,7.37
2023-11-30T14:50:46.250Z,7.97
2023-11-30T14:53:14.375Z,6.60
2023-11-30T14:55:42.581Z,6.10
2023-11-30T14:58:10.781Z,6.07
2023-11-30T15:00:41.520Z,7.07
2023-11-30T15:03:11.681Z,8.00
2023-11-30T15:05:40.719Z,9.03
2023-11-30T15:08:08.820Z,11.00
2023-11-30T15:10:35.855Z,12.67
2023-11-30T15:13:03.852Z,11.87
2023-11-30T15:15:31.942Z,12.37
2023-11-30T15:18:01.490Z,12.27
2023-11-30T15:20:30.525Z,13.30
2023-11-30T15:22:58.658Z,12.40
2023-11-30T15:25:26.956Z,12.40
2023-11-30T15:27:54.987Z,11.47
2023-11-30T15:30:25.265Z,13.67
2023-11-30T15:32:53.348Z,13.47
2023-11-30T15:35:22.716Z,13.83
2023-11-30T15:37:51.218Z,15.27
2023-11-30T15:40:21.961Z,15.90
2023-11-30T15:42:51.452Z,16.20
2023-11-30T15:45:22.651Z,17.73
2023-11-30T15:47:51.762Z,17.20
2023-11-30T15:50:20.074Z,17.63
2023-11-30T15:52:49.475Z,16.90
2023-11-30T15:55:17.737Z,17.77
2023-11-30T15:57:46.283Z,16.90
2023-11-30T16:00:15.780Z,17.30
2023-11-30T16:02:44.461Z,16.50
2023-11-30T16:05:14.381Z,19.10
2023-11-30T16:07:42.791Z,19.57
2023-11-30T16:10:12.783Z,20.30
2023-11-30T16:12:41.262Z,21.10
2023-11-30T16:15:11.406Z,20.50
2023-11-30T16:17:39.657Z,21.80
2023-11-30T16:20:11.470Z,21.00
2023-11-30T16:22:40.153Z,22.60
2023-11-30T16:25:09.304Z,21.53
2023-11-30T16:27:38.787Z,20.80
2023-11-30T16:30:09.212Z,20.80
2023-11-30T16:32:37.299Z,22.47
2023-11-30T16:35:06.879Z,22.30
2023-11-30T16:37:35.215Z,22.00
2023-11-30T16:40:04.076Z,22.47
2023-11-30T16:42:32.184Z,22.30
2023-11-30T16:45:01.924Z,21.23
2023-11-30T16:47:30.035Z,21.80
2023-11-30T16:49:58.091Z,20.27
2023-11-30T16:52:26.196Z,20.00
2023-11-30T16:54:54.575Z,24.17
2023-11-30T16:57:22.758Z,23.40
2023-11-30T16:59:50.811Z,22.40
2023-11-30T17:02:20.267Z,23.10
2023-11-30T17:04:48.575Z,22.23
2023-11-30T17:07:16.641Z,22.20
2023-11-30T17:09:48.581Z,27.33
2023-11-30T17:12:16.686Z,23.13
2023-11-30T17:14:44.981Z,22.07
2023-11-30T17:17:13.292Z,22.90
2023-11-30T17:19:42.686Z,24.60
2023-11-30T17:22:11.782Z,26.00
2023-11-30T17:24:42.547Z,24.17
2023-11-30T17:27:10.856Z,26.10
2023-11-30T17:29:40.846Z,24.67
2023-11-30T17:32:09.613Z,24.20
2023-11-30T17:34:38.231Z,25.10
2023-11-30T17:37:09.455Z,24.50
2023-11-30T17:39:37.598Z,24.10
2023-11-30T17:42:06.287Z,24.20
2023-11-30T17:44:34.481Z,27.20
2023-11-30T17:47:02.702Z,28.10
2023-11-30T17:49:30.855Z,28.17
2023-11-30T17:51:58.895Z,26.67
2023-11-30T17:54:28.521Z,27.90
2023-11-30T17:56:56.726Z,27.07
2023-11-30T17:59:25.253Z,25.90
2023-11-30T18:01:53.819Z,28.53
2023-11-30T18:04:21.922Z,28.70
2023-11-30T18:06:50.321Z,31.87
2023-11-30T18:09:18.772Z,29.10
2023-11-30T18:11:48.166Z,28.30
2023-11-30T18:14:16.235Z,28.40
2023-11-30T18:16:44.838Z,29.13
2023-11-30T18:19:13.327Z,28.37
2023-11-30T18:21:41.339Z,29.37
2023-11-30T18:24:09.469Z,29.40
2023-11-30T18:26:37.472Z,29.10
2023-11-30T18:29:07.146Z,28.37
2023-11-30T18:31:35.256Z,33.30
2023-11-30T18:34:03.557Z,30.00
2023-11-30T18:36:31.778Z,31.63
2023-11-30T18:38:59.903Z,32.37
2023-11-30T18:41:26.921Z,30.23
2023-11-30T18:43:54.970Z,33.60
2023-11-30T18:46:24.733Z,32.20
2023-11-30T18:48:51.829Z,32.17
2023-11-30T18:51:19.968Z,33.20
2023-11-30T18:53:48.043Z,34.43
2023-11-30T18:56:16.137Z,32.40
2023-11-30T18:58:45.140Z,33.83
2023-11-30T19:01:16.250Z,33.87
2023-11-30T19:03:46.247Z,37.40
2023-11-30T19:06:16.247Z,35.10
2023-11-30T19:08:44.797Z,37.40
2023-11-30T19:11:13.574Z,35.33
2023-11-30T19:13:42.799Z,38.10
2023-11-30T19:16:17.628Z,38.50
2023-11-30T19:18:48.700Z,38.73
2023-11-30T19:21:17.881Z,37.77
2023-11-30T19:23:46.226Z,39.87
2023-11-30T19:26:14.820Z,38.83
2023-11-30T19:28:42.944Z,40.93
2023-11-30T19:31:11.158Z,39.97
2023-11-30T19:33:39.271Z,36.93
2023-11-30T19:36:10.304Z,40.57
2023-11-30T19:38:38.614Z,40.70
2023-11-30T19:41:08.195Z,42.97
2023-11-30T19:43:36.434Z,43.13
2023-11-30T19:46:04.814Z,43.67
2023-11-30T19:48:32.972Z,42.07
2023-11-30T19:51:01.089Z,41.10
2023-11-30T19:53:31.158Z,40.70
2023-11-30T19:55:59.747Z,37.20
2023-11-30T19:58:27.857Z,38.33
2023-11-30T20:00:56.020Z,38.50
2023-11-30T20:03:24.138Z,36.47
2023-11-30T20:05:52.700Z,35.13
2023-11-30T20:08:20.877Z,35.57
2023-11-30T20:10:52.612Z,36.50
2023-11-30T20:13:20.941Z,39.30
2023-11-30T20:15:49.116Z,36.07
2023-11-30T20:18:17.320Z,38.10
2023-11-30T20:20:45.380Z,39.50
2023-11-30T20:23:13.498Z,35.83
2023-11-30T20:25:41.649Z,33.97
2023-11-30T20:28:11.416Z,33.13
2023-11-30T20:30:39.561Z,30.63
2023-11-30T20:33:07.807Z,33.13
2023-11-30T20:35:35.945Z,32.57
2023-11-30T20:38:04.029Z,32.40
2023-11-30T20:40:32.065Z,34.83
2023-11-30T20:43:00.144Z,32.33
2023-11-30T20:45:29.620Z,33.57
2023-11-30T20:47:57.781Z,33.13
2023-11-30T20:50:25.912Z,34.37
2023-11-30T20:52:54.331Z,33.70
2023-11-30T20:55:23.716Z,33.33
2023-11-30T20:57:51.790Z,32.97
2023-11-30T21:00:20.346Z,31.63
2023-11-30T21:02:49.891Z,32.60
2023-11-30T21:05:19.343Z,34.30
2023-11-30T21:07:47.452Z,34.13
2023-11-30T21:10:15.965Z,32.93
2023-11-30T21:12:44.068Z,32.90
2023-11-30T21:15:12.957Z,33.00
2023-11-30T21:17:41.003Z,33.37
2023-11-30T21:20:10.974Z,33.60
2023-11-30T21:22:39.099Z,31.20
2023-11-30T21:25:07.256Z,31.30
2023-11-30T21:27:35.392Z,33.70
2023-11-30T21:30:04.022Z,32.30
2023-11-30T21:32:32.139Z,32.00
2023-11-30T21:35:00.633Z,31.50
2023-11-30T21:37:30.402Z,29.70
2023-11-30T21:39:58.734Z,31.47
2023-11-30T21:42:26.838Z,33.10
2023-11-30T21:44:55.652Z,32.90
2023-11-30T21:47:23.635Z,34.57
2023-11-30T21:49:51.639Z,32.90
2023-11-30T21:52:20.108Z,32.77
2023-11-30T21:54:49.474Z,34.50
2023-11-30T21:57:17.983Z,33.93
2023-11-30T21:59:46.414Z,34.73
2023-11-30T22:02:16.491Z,37.20
2023-11-30T22:04:44.755Z,37.17
2023-11-30T22:07:12.875Z,37.00
2023-11-30T22:09:39.958Z,35.90
2023-11-30T22:12:10.562Z,36.67
2023-11-30T22:14:38.650Z,35.60
2023-11-30T22:17:06.762Z,37.23
2023-11-30T22:19:34.880Z,34.47
2023-11-30T22:22:03.166Z,35.43
2023-11-30T22:24:31.216Z,37.27
2023-11-30T22:26:59.661Z,37.97
2023-11-30T22:29:30.021Z,34.27
2023-11-30T22:31:58.067Z,36.30
2023-11-30T22:34:26.528Z,38.17
2023-11-30T22:36:54.701Z,34.97
2023-11-30T22:39:22.798Z,36.07
2023-11-30T22:41:51.278Z,35.90
2023-11-30T22:44:19.470Z,37.40
2023-11-30T22:46:49.153Z,37.23
2023-11-30T22:49:20.239Z,36.70
2023-11-30T22:51:50.059Z,35.90
2023-11-30T22:54:18.471Z,33.90
2023-11-30T22:56:46.585Z,31.27
2023-11-30T22:59:16.387Z,29.03
2023-11-30T23:01:44.607Z,30.30
2023-11-30T23:04:14.713Z,30.50
2023-11-30T23:06:42.959Z,32.23
2023-11-30T23:09:11.070Z,35.77
2023-11-30T23:11:39.291Z,33.30
2023-11-30T23:14:07.302Z,33.70
2023-11-30T23:16:35.486Z,34.60
2023-11-30T23:19:03.590Z,33.17
2023-11-30T23:21:32.986Z,34.07
2023-11-30T23:24:01.284Z,35.00
2023-11-30T23:26:30.235Z,33.47
2023-11-30T23:28:58.273Z,33.57
2023-11-30T23:31:26.446Z,33.67
2023-11-30T23:33:57.409Z,33.50
2023-11-30T23:36:27.212Z,33.83
2023-11-30T23:38:57.625Z,35.90
2023-11-30T23:41:25.603Z,31.80
2023-11-30T23:43:53.842Z,33.57
2023-11-30T23:46:22.122Z,31.23
2023-11-30T23:48:50.211Z,33.60
2023-11-30T23:51:18.456Z,34.27
2023-11-30T23:53:46.690Z,33.40
2023-11-30T23:56:16.176Z,30.93
2023-11-30T23:58:44.173Z,29.00
